sensor_id;sensor_type;location;lat;lon;timestamp;P1;durP1;ratioP1;P2;durP2;ratioP2
6667;SDS011;3370;47.712;9.082;2022-10-23T00:01:30;5.83;;;2.17;;
6667;SDS011;3370;47.712;9.082;2022-10-23T00:04:03;2.43;;;2.23;;
6667;SDS011;3370;47.712;9.082;2022-10-23T00:06:51;9.77;;;2.70;;
6667;SDS011;3370;47.712;9.082;2022-10-23T00:09:18;9.43;;;3.30;;
6667;SDS011;3370;47.712;9.082;2022-10-23T00:11:47;4.23;;;1.97;;
6667;SDS011;3370;47.712;9.082;2022-10-23T00:14:15;6.73;;;1.90;;
6667;SDS011;3370;47.712;9.082;2022-10-23T00:16:44;3.67;;;1.80;;
6667;SDS011;3370;47.712;9.082;2022-10-23T00:19:10;4.13;;;2.40;;
6667;SDS011;3370;47.712;9.082;2022-10-23T00:21:37;5.30;;;2.17;;
6667;SDS011;3370;47.712;9.082;2022-10-23T00:24:03;1.63;;;1.53;;
6667;SDS011;3370;47.712;9.082;2022-10-23T00:26:30;2.57;;;2.37;;
6667;SDS011;3370;47.712;9.082;2022-10-23T00:28:56;5.53;;;2.00;;
6667;SDS011;3370;47.712;9.082;2022-10-23T00:31:22;4.50;;;2.10;;
6667;SDS011;3370;47.712;9.082;2022-10-23T00:33:49;2.20;;;2.00;;
6667;SDS011;3370;47.712;9.082;2022-10-23T00:36:16;3.63;;;2.07;;
6667;SDS011;3370;47.712;9.082;2022-10-23T00:38:45;2.43;;;1.80;;
6667;SDS011;3370;47.712;9.082;2022-10-23T00:41:17;2.67;;;1.77;;
6667;SDS011;3370;47.712;9.082;2022-10-23T00:43:55;2.30;;;2.20;;
6667;SDS011;3370;47.712;9.082;2022-10-23T00:46:24;2.70;;;2.50;;
6667;SDS011;3370;47.712;9.082;2022-10-23T00:48:51;7.60;;;2.00;;
6667;SDS011;3370;47.712;9.082;2022-10-23T00:51:16;2.67;;;2.47;;
6667;SDS011;3370;47.712;9.082;2022-10-23T00:53:43;3.43;;;2.00;;
6667;SDS011;3370;47.712;9.082;2022-10-23T00:56:09;5.43;;;1.80;;
6667;SDS011;3370;47.712;9.082;2022-10-23T00:58:36;4.53;;;2.33;;
6667;SDS011;3370;47.712;9.082;2022-10-23T01:01:02;2.00;;;1.80;;
6667;SDS011;3370;47.712;9.082;2022-10-23T01:03:43;2.23;;;2.03;;
6667;SDS011;3370;47.712;9.082;2022-10-23T01:06:33;1.50;;;1.50;;
6667;SDS011;3370;47.712;9.082;2022-10-23T01:09:17;3.70;;;2.33;;
6667;SDS011;3370;47.712;9.082;2022-10-23T01:20:10;7.27;;;2.30;;
6667;SDS011;3370;47.712;9.082;2022-10-23T01:29:02;5.20;;;2.20;;
6667;SDS011;3370;47.712;9.082;2022-10-23T01:34:19;5.60;;;1.90;;
6667;SDS011;3370;47.712;9.082;2022-10-23T01:36:56;18.43;;;2.30;;
6667;SDS011;3370;47.712;9.082;2022-10-23T01:39:26;2.10;;;1.93;;
6667;SDS011;3370;47.712;9.082;2022-10-23T01:42:04;2.30;;;2.17;;
6667;SDS011;3370;47.712;9.082;2022-10-23T01:47:24;4.03;;;2.03;;
6667;SDS011;3370;47.712;9.082;2022-10-23T01:49:55;3.97;;;2.40;;
6667;SDS011;3370;47.712;9.082;2022-10-23T01:52:22;2.70;;;2.50;;
6667;SDS011;3370;47.712;9.082;2022-10-23T01:54:48;1.70;;;1.60;;
6667;SDS011;3370;47.712;9.082;2022-10-23T01:57:17;11.53;;;2.17;;
6667;SDS011;3370;47.712;9.082;2022-10-23T01:59:48;6.50;;;2.70;;
6667;SDS011;3370;47.712;9.082;2022-10-23T02:02:22;2.23;;;2.13;;
6667;SDS011;3370;47.712;9.082;2022-10-23T02:07:53;2.27;;;2.17;;
6667;SDS011;3370;47.712;9.082;2022-10-23T02:10:20;9.73;;;2.43;;
6667;SDS011;3370;47.712;9.082;2022-10-23T02:13:04;2.27;;;2.07;;
6667;SDS011;3370;47.712;9.082;2022-10-23T02:15:42;3.63;;;2.47;;
6667;SDS011;3370;47.712;9.082;2022-10-23T02:21:14;3.30;;;2.00;;
6667;SDS011;3370;47.712;9.082;2022-10-23T02:23:49;2.20;;;2.10;;
6667;SDS011;3370;47.712;9.082;2022-10-23T02:26:39;3.00;;;2.80;;
6667;SDS011;3370;47.712;9.082;2022-10-23T02:32:10;4.23;;;2.00;;
6667;SDS011;3370;47.712;9.082;2022-10-23T02:34:38;2.40;;;1.97;;
6667;SDS011;3370;47.712;9.082;2022-10-23T02:37:04;10.97;;;3.10;;
6667;SDS011;3370;47.712;9.082;2022-10-23T02:39:30;4.97;;;2.27;;
6667;SDS011;3370;47.712;9.082;2022-10-23T02:58:44;8.17;;;2.77;;
6667;SDS011;3370;47.712;9.082;2022-10-23T03:01:55;4.50;;;3.27;;
6667;SDS011;3370;47.712;9.082;2022-10-23T03:04:48;5.30;;;4.03;;
6667;SDS011;3370;47.712;9.082;2022-10-23T03:07:17;8.10;;;5.60;;
6667;SDS011;3370;47.712;9.082;2022-10-23T03:09:44;9.43;;;5.47;;
6667;SDS011;3370;47.712;9.082;2022-10-23T03:12:11;10.90;;;6.40;;
6667;SDS011;3370;47.712;9.082;2022-10-23T03:14:36;6.67;;;5.97;;
6667;SDS011;3370;47.712;9.082;2022-10-23T03:17:02;11.20;;;7.63;;
6667;SDS011;3370;47.712;9.082;2022-10-23T03:19:31;23.13;;;7.20;;
6667;SDS011;3370;47.712;9.082;2022-10-23T03:21:57;11.77;;;7.23;;
6667;SDS011;3370;47.712;9.082;2022-10-23T03:24:23;8.67;;;6.83;;
6667;SDS011;3370;47.712;9.082;2022-10-23T03:26:48;8.43;;;6.80;;
6667;SDS011;3370;47.712;9.082;2022-10-23T03:29:14;11.63;;;6.90;;
6667;SDS011;3370;47.712;9.082;2022-10-23T03:31:40;12.10;;;6.47;;
6667;SDS011;3370;47.712;9.082;2022-10-23T03:34:06;7.40;;;6.60;;
6667;SDS011;3370;47.712;9.082;2022-10-23T03:36:35;13.93;;;7.40;;
6667;SDS011;3370;47.712;9.082;2022-10-23T03:39:02;8.77;;;6.00;;
6667;SDS011;3370;47.712;9.082;2022-10-23T03:41:28;10.47;;;5.07;;
6667;SDS011;3370;47.712;9.082;2022-10-23T03:43:55;5.67;;;5.07;;
6667;SDS011;3370;47.712;9.082;2022-10-23T03:46:20;7.37;;;5.30;;
6667;SDS011;3370;47.712;9.082;2022-10-23T03:48:46;12.43;;;5.50;;
6667;SDS011;3370;47.712;9.082;2022-10-23T03:51:12;12.10;;;5.07;;
6667;SDS011;3370;47.712;9.082;2022-10-23T03:53:38;9.50;;;5.13;;
6667;SDS011;3370;47.712;9.082;2022-10-23T03:56:04;7.57;;;5.63;;
6667;SDS011;3370;47.712;9.082;2022-10-23T03:58:30;7.60;;;5.67;;
6667;SDS011;3370;47.712;9.082;2022-10-23T04:00:56;17.03;;;7.90;;
6667;SDS011;3370;47.712;9.082;2022-10-23T04:03:22;17.33;;;7.50;;
6667;SDS011;3370;47.712;9.082;2022-10-23T04:05:48;10.40;;;7.60;;
6667;SDS011;3370;47.712;9.082;2022-10-23T04:08:14;21.77;;;8.60;;
6667;SDS011;3370;47.712;9.082;2022-10-23T04:10:40;11.90;;;8.93;;
6667;SDS011;3370;47.712;9.082;2022-10-23T04:13:06;16.20;;;8.67;;
6667;SDS011;3370;47.712;9.082;2022-10-23T04:15:32;11.53;;;8.77;;
6667;SDS011;3370;47.712;9.082;2022-10-23T04:17:58;15.30;;;7.90;;
6667;SDS011;3370;47.712;9.082;2022-10-23T04:20:23;19.47;;;8.87;;
6667;SDS011;3370;47.712;9.082;2022-10-23T04:22:49;12.40;;;7.87;;
6667;SDS011;3370;47.712;9.082;2022-10-23T04:25:15;9.90;;;7.50;;
6667;SDS011;3370;47.712;9.082;2022-10-23T04:27:41;14.27;;;8.80;;
6667;SDS011;3370;47.712;9.082;2022-10-23T04:30:07;27.13;;;8.10;;
6667;SDS011;3370;47.712;9.082;2022-10-23T04:32:34;12.80;;;7.93;;
6667;SDS011;3370;47.712;9.082;2022-10-23T04:34:59;11.57;;;8.43;;
6667;SDS011;3370;47.712;9.082;2022-10-23T04:37:25;11.33;;;9.00;;
6667;SDS011;3370;47.712;9.082;2022-10-23T04:39:52;11.40;;;8.80;;
6667;SDS011;3370;47.712;9.082;2022-10-23T04:42:18;55.07;;;8.60;;
6667;SDS011;3370;47.712;9.082;2022-10-23T04:44:44;9.97;;;7.40;;
6667;SDS011;3370;47.712;9.082;2022-10-23T04:47:09;11.20;;;7.67;;
6667;SDS011;3370;47.712;9.082;2022-10-23T04:49:35;12.37;;;8.23;;
6667;SDS011;3370;47.712;9.082;2022-10-23T04:52:01;11.83;;;7.80;;
6667;SDS011;3370;47.712;9.082;2022-10-23T04:54:27;12.90;;;9.23;;
6667;SDS011;3370;47.712;9.082;2022-10-23T04:56:53;8.90;;;8.00;;
6667;SDS011;3370;47.712;9.082;2022-10-23T04:59:19;10.93;;;9.93;;
6667;SDS011;3370;47.712;9.082;2022-10-23T05:01:44;9.37;;;8.43;;
6667;SDS011;3370;47.712;9.082;2022-10-23T05:04:10;19.70;;;8.60;;
6667;SDS011;3370;47.712;9.082;2022-10-23T05:06:37;10.93;;;7.53;;
6667;SDS011;3370;47.712;9.082;2022-10-23T05:09:03;8.50;;;7.70;;
6667;SDS011;3370;47.712;9.082;2022-10-23T05:11:29;32.50;;;8.87;;
6667;SDS011;3370;47.712;9.082;2022-10-23T05:13:55;9.70;;;8.20;;
6667;SDS011;3370;47.712;9.082;2022-10-23T05:16:25;12.60;;;8.33;;
6667;SDS011;3370;47.712;9.082;2022-10-23T05:18:59;9.70;;;7.37;;
6667;SDS011;3370;47.712;9.082;2022-10-23T05:21:26;8.80;;;7.87;;
6667;SDS011;3370;47.712;9.082;2022-10-23T05:23:56;8.37;;;7.57;;
6667;SDS011;3370;47.712;9.082;2022-10-23T05:26:22;18.03;;;7.70;;
6667;SDS011;3370;47.712;9.082;2022-10-23T05:28:48;8.90;;;7.37;;
6667;SDS011;3370;47.712;9.082;2022-10-23T05:31:14;13.93;;;7.20;;
6667;SDS011;3370;47.712;9.082;2022-10-23T05:33:41;33.17;;;7.20;;
6667;SDS011;3370;47.712;9.082;2022-10-23T05:36:07;8.10;;;7.20;;
6667;SDS011;3370;47.712;9.082;2022-10-23T05:38:35;11.00;;;6.33;;
6667;SDS011;3370;47.712;9.082;2022-10-23T05:41:01;9.03;;;6.93;;
6667;SDS011;3370;47.712;9.082;2022-10-23T05:43:27;15.57;;;5.67;;
6667;SDS011;3370;47.712;9.082;2022-10-23T05:45:55;17.83;;;6.43;;
6667;SDS011;3370;47.712;9.082;2022-10-23T05:48:22;7.00;;;5.87;;
6667;SDS011;3370;47.712;9.082;2022-10-23T05:50:48;14.97;;;5.63;;
6667;SDS011;3370;47.712;9.082;2022-10-23T05:53:14;17.13;;;6.70;;
6667;SDS011;3370;47.712;9.082;2022-10-23T05:55:40;102.23;;;8.60;;
6667;SDS011;3370;47.712;9.082;2022-10-23T05:58:06;7.00;;;6.27;;
6667;SDS011;3370;47.712;9.082;2022-10-23T06:00:32;8.67;;;6.83;;
6667;SDS011;3370;47.712;9.082;2022-10-23T06:02:58;13.10;;;8.10;;
6667;SDS011;3370;47.712;9.082;2022-10-23T06:05:25;135.40;;;10.00;;
6667;SDS011;3370;47.712;9.082;2022-10-23T06:07:50;315.80;;;12.20;;
6667;SDS011;3370;47.712;9.082;2022-10-23T06:10:16;8.57;;;7.83;;
6667;SDS011;3370;47.712;9.082;2022-10-23T06:12:42;21.83;;;8.80;;
6667;SDS011;3370;47.712;9.082;2022-10-23T06:15:08;257.17;;;10.43;;
6667;SDS011;3370;47.712;9.082;2022-10-23T06:17:34;8.50;;;7.70;;
6667;SDS011;3370;47.712;9.082;2022-10-23T06:20:00;14.23;;;8.20;;
6667;SDS011;3370;47.712;9.082;2022-10-23T06:22:29;9.97;;;7.40;;
6667;SDS011;3370;47.712;9.082;2022-10-23T06:24:55;25.10;;;9.20;;
6667;SDS011;3370;47.712;9.082;2022-10-23T06:27:21;9.97;;;8.83;;
6667;SDS011;3370;47.712;9.082;2022-10-23T06:29:47;28.47;;;7.87;;
6667;SDS011;3370;47.712;9.082;2022-10-23T06:32:13;8.03;;;7.30;;
6667;SDS011;3370;47.712;9.082;2022-10-23T06:34:39;9.30;;;7.23;;
6667;SDS011;3370;47.712;9.082;2022-10-23T06:37:04;167.60;;;9.47;;
6667;SDS011;3370;47.712;9.082;2022-10-23T06:39:30;8.23;;;7.13;;
6667;SDS011;3370;47.712;9.082;2022-10-23T06:41:56;18.23;;;8.63;;
6667;SDS011;3370;47.712;9.082;2022-10-23T06:44:22;14.67;;;7.97;;
6667;SDS011;3370;47.712;9.082;2022-10-23T06:46:48;13.70;;;8.30;;
6667;SDS011;3370;47.712;9.082;2022-10-23T06:49:14;9.07;;;8.07;;
6667;SDS011;3370;47.712;9.082;2022-10-23T06:51:41;14.23;;;10.10;;
6667;SDS011;3370;47.712;9.082;2022-10-23T06:54:08;16.53;;;9.13;;
6667;SDS011;3370;47.712;9.082;2022-10-23T06:56:35;133.23;;;18.13;;
6667;SDS011;3370;47.712;9.082;2022-10-23T06:59:02;23.37;;;16.83;;
6667;SDS011;3370;47.712;9.082;2022-10-23T07:01:28;13.10;;;11.40;;
6667;SDS011;3370;47.712;9.082;2022-10-23T07:03:54;11.80;;;9.47;;
6667;SDS011;3370;47.712;9.082;2022-10-23T07:06:20;12.37;;;9.47;;
6667;SDS011;3370;47.712;9.082;2022-10-23T07:08:46;13.20;;;9.60;;
6667;SDS011;3370;47.712;9.082;2022-10-23T07:11:12;16.63;;;10.10;;
6667;SDS011;3370;47.712;9.082;2022-10-23T07:13:38;20.03;;;10.10;;
6667;SDS011;3370;47.712;9.082;2022-10-23T07:16:10;12.70;;;11.00;;
6667;SDS011;3370;47.712;9.082;2022-10-23T07:18:42;12.30;;;9.80;;
6667;SDS011;3370;47.712;9.082;2022-10-23T07:21:08;15.07;;;10.00;;
6667;SDS011;3370;47.712;9.082;2022-10-23T07:23:35;15.83;;;9.77;;
6667;SDS011;3370;47.712;9.082;2022-10-23T07:26:02;13.00;;;9.60;;
6667;SDS011;3370;47.712;9.082;2022-10-23T07:28:39;10.87;;;9.20;;
6667;SDS011;3370;47.712;9.082;2022-10-23T07:31:07;13.70;;;10.00;;
6667;SDS011;3370;47.712;9.082;2022-10-23T07:33:33;16.27;;;12.97;;
6667;SDS011;3370;47.712;9.082;2022-10-23T07:35:59;125.67;;;13.20;;
6667;SDS011;3370;47.712;9.082;2022-10-23T07:38:27;65.10;;;12.57;;
6667;SDS011;3370;47.712;9.082;2022-10-23T07:40:55;14.17;;;11.60;;
6667;SDS011;3370;47.712;9.082;2022-10-23T07:43:22;14.13;;;11.90;;
6667;SDS011;3370;47.712;9.082;2022-10-23T07:45:49;14.20;;;11.13;;
6667;SDS011;3370;47.712;9.082;2022-10-23T07:48:17;13.90;;;11.90;;
6667;SDS011;3370;47.712;9.082;2022-10-23T07:50:43;55.00;;;12.13;;
6667;SDS011;3370;47.712;9.082;2022-10-23T07:53:17;14.70;;;10.37;;
6667;SDS011;3370;47.712;9.082;2022-10-23T07:55:53;20.60;;;11.90;;
6667;SDS011;3370;47.712;9.082;2022-10-23T07:58:26;13.90;;;11.03;;
6667;SDS011;3370;47.712;9.082;2022-10-23T08:00:58;11.40;;;10.30;;
6667;SDS011;3370;47.712;9.082;2022-10-23T08:03:26;13.60;;;11.60;;
6667;SDS011;3370;47.712;9.082;2022-10-23T08:05:55;12.90;;;11.07;;
6667;SDS011;3370;47.712;9.082;2022-10-23T08:08:22;11.70;;;10.50;;
6667;SDS011;3370;47.712;9.082;2022-10-23T08:10:49;12.00;;;10.80;;
6667;SDS011;3370;47.712;9.082;2022-10-23T08:13:17;12.80;;;11.57;;
6667;SDS011;3370;47.712;9.082;2022-10-23T08:15:48;13.43;;;12.03;;
6667;SDS011;3370;47.712;9.082;2022-10-23T08:18:15;19.30;;;12.27;;
6667;SDS011;3370;47.712;9.082;2022-10-23T08:20:42;16.00;;;12.20;;
6667;SDS011;3370;47.712;9.082;2022-10-23T08:23:11;12.43;;;11.13;;
6667;SDS011;3370;47.712;9.082;2022-10-23T08:25:40;17.50;;;13.47;;
6667;SDS011;3370;47.712;9.082;2022-10-23T08:28:06;15.40;;;12.90;;
6667;SDS011;3370;47.712;9.082;2022-10-23T08:30:33;15.03;;;12.43;;
6667;SDS011;3370;47.712;9.082;2022-10-23T08:33:04;14.20;;;11.50;;
6667;SDS011;3370;47.712;9.082;2022-10-23T08:35:34;27.33;;;14.90;;
6667;SDS011;3370;47.712;9.082;2022-10-23T08:38:02;21.70;;;13.20;;
6667;SDS011;3370;47.712;9.082;2022-10-23T08:40:29;22.17;;;12.43;;
6667;SDS011;3370;47.712;9.082;2022-10-23T08:43:15;15.40;;;12.10;;
6667;SDS011;3370;47.712;9.082;2022-10-23T08:45:51;16.67;;;12.50;;
6667;SDS011;3370;47.712;9.082;2022-10-23T08:51:01;20.30;;;14.23;;
6667;SDS011;3370;47.712;9.082;2022-10-23T08:53:55;15.07;;;12.10;;
6667;SDS011;3370;47.712;9.082;2022-10-23T08:56:39;18.43;;;14.33;;
6667;SDS011;3370;47.712;9.082;2022-10-23T08:59:12;15.73;;;12.43;;
6667;SDS011;3370;47.712;9.082;2022-10-23T09:05:13;16.20;;;13.00;;
6667;SDS011;3370;47.712;9.082;2022-10-23T09:18:38;15.97;;;14.27;;
6667;SDS011;3370;47.712;9.082;2022-10-23T09:21:09;17.90;;;15.10;;
6667;SDS011;3370;47.712;9.082;2022-10-23T09:23:35;19.27;;;15.47;;
6667;SDS011;3370;47.712;9.082;2022-10-23T09:26:03;20.13;;;16.17;;
6667;SDS011;3370;47.712;9.082;2022-10-23T09:28:51;27.37;;;16.00;;
6667;SDS011;3370;47.712;9.082;2022-10-23T09:31:26;17.37;;;14.40;;
6667;SDS011;3370;47.712;9.082;2022-10-23T09:34:00;23.20;;;14.60;;
6667;SDS011;3370;47.712;9.082;2022-10-23T09:36:26;13.57;;;12.17;;
6667;SDS011;3370;47.712;9.082;2022-10-23T09:38:54;13.07;;;11.43;;
6667;SDS011;3370;47.712;9.082;2022-10-23T09:44:00;12.53;;;10.80;;
6667;SDS011;3370;47.712;9.082;2022-10-23T09:46:35;11.77;;;9.97;;
6667;SDS011;3370;47.712;9.082;2022-10-23T09:54:43;11.00;;;7.83;;
6667;SDS011;3370;47.712;9.082;2022-10-23T10:02:52;10.30;;;9.30;;
6667;SDS011;3370;47.712;9.082;2022-10-23T10:05:31;9.47;;;8.50;;
6667;SDS011;3370;47.712;9.082;2022-10-23T10:10:46;8.50;;;7.67;;
6667;SDS011;3370;47.712;9.082;2022-10-23T10:19:00;12.63;;;7.90;;
6667;SDS011;3370;47.712;9.082;2022-10-23T10:21:44;10.53;;;7.90;;
6667;SDS011;3370;47.712;9.082;2022-10-23T10:30:09;7.13;;;6.20;;
6667;SDS011;3370;47.712;9.082;2022-10-23T10:39:00;6.20;;;5.60;;
6667;SDS011;3370;47.712;9.082;2022-10-23T10:49:53;5.53;;;4.27;;
6667;SDS011;3370;47.712;9.082;2022-10-23T10:55:49;4.80;;;4.40;;
6667;SDS011;3370;47.712;9.082;2022-10-23T11:01:14;3.50;;;3.20;;
6667;SDS011;3370;47.712;9.082;2022-10-23T11:04:20;2.47;;;2.27;;
6667;SDS011;3370;47.712;9.082;2022-10-23T11:06:56;2.40;;;2.20;;
6667;SDS011;3370;47.712;9.082;2022-10-23T11:09:26;1.70;;;1.70;;
6667;SDS011;3370;47.712;9.082;2022-10-23T11:11:53;2.87;;;1.93;;
6667;SDS011;3370;47.712;9.082;2022-10-23T11:14:24;2.50;;;2.40;;
6667;SDS011;3370;47.712;9.082;2022-10-23T11:17:04;2.50;;;2.30;;
6667;SDS011;3370;47.712;9.082;2022-10-23T11:23:05;3.70;;;3.17;;
6667;SDS011;3370;47.712;9.082;2022-10-23T11:26:04;4.30;;;3.90;;
6667;SDS011;3370;47.712;9.082;2022-10-23T11:37:58;4.60;;;2.63;;
6667;SDS011;3370;47.712;9.082;2022-10-23T11:40:51;2.83;;;2.63;;
6667;SDS011;3370;47.712;9.082;2022-10-23T11:48:51;3.87;;;2.60;;
6667;SDS011;3370;47.712;9.082;2022-10-23T11:51:32;3.73;;;2.43;;
6667;SDS011;3370;47.712;9.082;2022-10-23T12:08:02;5.23;;;2.20;;
6667;SDS011;3370;47.712;9.082;2022-10-23T12:10:32;2.97;;;2.00;;
6667;SDS011;3370;47.712;9.082;2022-10-23T12:13:27;2.77;;;1.90;;
6667;SDS011;3370;47.712;9.082;2022-10-23T12:16:09;2.20;;;2.10;;
6667;SDS011;3370;47.712;9.082;2022-10-23T12:19:42;1.60;;;1.60;;
6667;SDS011;3370;47.712;9.082;2022-10-23T12:21:44;3.07;;;2.00;;
6667;SDS011;3370;47.712;9.082;2022-10-23T12:27:29;1.90;;;1.80;;
6667;SDS011;3370;47.712;9.082;2022-10-23T12:30:19;2.00;;;1.90;;
6667;SDS011;3370;47.712;9.082;2022-10-23T12:33:20;5.27;;;1.97;;
6667;SDS011;3370;47.712;9.082;2022-10-23T12:36:14;2.10;;;1.97;;
6667;SDS011;3370;47.712;9.082;2022-10-23T12:39:27;1.90;;;1.80;;
6667;SDS011;3370;47.712;9.082;2022-10-23T12:41:56;2.33;;;2.23;;
6667;SDS011;3370;47.712;9.082;2022-10-23T12:44:23;3.10;;;2.07;;
6667;SDS011;3370;47.712;9.082;2022-10-23T12:46:52;2.20;;;1.97;;
6667;SDS011;3370;47.712;9.082;2022-10-23T12:49:22;5.63;;;2.10;;
6667;SDS011;3370;47.712;9.082;2022-10-23T12:51:58;4.20;;;1.97;;
6667;SDS011;3370;47.712;9.082;2022-10-23T12:54:45;2.30;;;2.10;;
6667;SDS011;3370;47.712;9.082;2022-10-23T12:57:58;3.80;;;2.07;;
6667;SDS011;3370;47.712;9.082;2022-10-23T13:00:09;3.30;;;1.87;;
6667;SDS011;3370;47.712;9.082;2022-10-23T13:02:40;1.97;;;1.87;;
6667;SDS011;3370;47.712;9.082;2022-10-23T13:05:06;3.53;;;2.80;;
6667;SDS011;3370;47.712;9.082;2022-10-23T13:07:41;2.60;;;2.20;;
6667;SDS011;3370;47.712;9.082;2022-10-23T13:10:12;4.43;;;2.67;;
6667;SDS011;3370;47.712;9.082;2022-10-23T13:12:42;2.67;;;2.50;;
6667;SDS011;3370;47.712;9.082;2022-10-23T13:15:16;2.40;;;2.20;;
6667;SDS011;3370;47.712;9.082;2022-10-23T13:17:58;2.87;;;2.60;;
6667;SDS011;3370;47.712;9.082;2022-10-23T13:20:28;4.20;;;2.47;;
6667;SDS011;3370;47.712;9.082;2022-10-23T13:23:17;7.40;;;2.20;;
6667;SDS011;3370;47.712;9.082;2022-10-23T13:28:43;1.70;;;1.60;;
6667;SDS011;3370;47.712;9.082;2022-10-23T13:38:43;2.30;;;2.10;;
6667;SDS011;3370;47.712;9.082;2022-10-23T13:41:26;2.17;;;1.70;;
6667;SDS011;3370;47.712;9.082;2022-10-23T13:43:59;7.70;;;2.03;;
6667;SDS011;3370;47.712;9.082;2022-10-23T13:46:25;1.80;;;1.70;;
6667;SDS011;3370;47.712;9.082;2022-10-23T13:48:51;1.60;;;1.50;;
6667;SDS011;3370;47.712;9.082;2022-10-23T13:51:18;1.70;;;1.60;;
6667;SDS011;3370;47.712;9.082;2022-10-23T13:53:58;4.37;;;1.80;;
6667;SDS011;3370;47.712;9.082;2022-10-23T13:56:25;1.87;;;1.70;;
6667;SDS011;3370;47.712;9.082;2022-10-23T13:58:52;4.50;;;2.00;;
6667;SDS011;3370;47.712;9.082;2022-10-23T14:01:22;3.13;;;1.60;;
6667;SDS011;3370;47.712;9.082;2022-10-23T14:03:52;2.30;;;1.70;;
6667;SDS011;3370;47.712;9.082;2022-10-23T14:06:20;3.83;;;1.90;;
6667;SDS011;3370;47.712;9.082;2022-10-23T14:08:46;6.40;;;1.87;;
6667;SDS011;3370;47.712;9.082;2022-10-23T14:11:12;2.60;;;2.40;;
6667;SDS011;3370;47.712;9.082;2022-10-23T14:13:40;5.87;;;2.90;;
6667;SDS011;3370;47.712;9.082;2022-10-23T14:16:06;5.30;;;2.90;;
6667;SDS011;3370;47.712;9.082;2022-10-23T14:18:35;3.00;;;2.70;;
6667;SDS011;3370;47.712;9.082;2022-10-23T14:21:05;2.77;;;2.57;;
6667;SDS011;3370;47.712;9.082;2022-10-23T14:23:34;3.47;;;2.67;;
6667;SDS011;3370;47.712;9.082;2022-10-23T14:26:04;2.37;;;2.17;;
6667;SDS011;3370;47.712;9.082;2022-10-23T14:28:33;5.80;;;2.60;;
6667;SDS011;3370;47.712;9.082;2022-10-23T14:31:03;2.90;;;1.80;;
6667;SDS011;3370;47.712;9.082;2022-10-23T14:33:30;8.57;;;2.63;;
6667;SDS011;3370;47.712;9.082;2022-10-23T14:35:56;8.67;;;7.47;;
6667;SDS011;3370;47.712;9.082;2022-10-23T14:38:22;13.57;;;10.03;;
6667;SDS011;3370;47.712;9.082;2022-10-23T14:40:48;4.53;;;2.80;;
6667;SDS011;3370;47.712;9.082;2022-10-23T14:43:14;10.60;;;2.53;;
6667;SDS011;3370;47.712;9.082;2022-10-23T14:45:39;2.63;;;2.30;;
6667;SDS011;3370;47.712;9.082;2022-10-23T14:48:05;2.57;;;2.37;;
6667;SDS011;3370;47.712;9.082;2022-10-23T14:50:33;3.17;;;2.40;;
6667;SDS011;3370;47.712;9.082;2022-10-23T14:53:01;3.07;;;2.33;;
6667;SDS011;3370;47.712;9.082;2022-10-23T14:55:27;7.93;;;2.13;;
6667;SDS011;3370;47.712;9.082;2022-10-23T14:57:54;7.00;;;2.13;;
6667;SDS011;3370;47.712;9.082;2022-10-23T15:00:21;5.93;;;2.20;;
6667;SDS011;3370;47.712;9.082;2022-10-23T15:02:48;2.20;;;1.97;;
6667;SDS011;3370;47.712;9.082;2022-10-23T15:05:14;2.20;;;2.10;;
6667;SDS011;3370;47.712;9.082;2022-10-23T15:07:40;2.00;;;1.90;;
6667;SDS011;3370;47.712;9.082;2022-10-23T15:10:06;2.93;;;2.20;;
6667;SDS011;3370;47.712;9.082;2022-10-23T15:12:33;3.23;;;2.30;;
6667;SDS011;3370;47.712;9.082;2022-10-23T15:15:00;6.43;;;2.50;;
6667;SDS011;3370;47.712;9.082;2022-10-23T15:17:27;11.63;;;1.80;;
6667;SDS011;3370;47.712;9.082;2022-10-23T15:19:53;4.60;;;2.30;;
6667;SDS011;3370;47.712;9.082;2022-10-23T15:22:19;4.03;;;2.40;;
6667;SDS011;3370;47.712;9.082;2022-10-23T15:24:46;8.33;;;2.23;;
6667;SDS011;3370;47.712;9.082;2022-10-23T15:27:12;2.33;;;2.10;;
6667;SDS011;3370;47.712;9.082;2022-10-23T15:29:38;2.20;;;2.03;;
6667;SDS011;3370;47.712;9.082;2022-10-23T15:32:04;2.47;;;2.27;;
6667;SDS011;3370;47.712;9.082;2022-10-23T15:34:31;2.30;;;1.90;;
6667;SDS011;3370;47.712;9.082;2022-10-23T15:36:58;4.67;;;2.40;;
6667;SDS011;3370;47.712;9.082;2022-10-23T15:39:28;2.20;;;2.10;;
6667;SDS011;3370;47.712;9.082;2022-10-23T15:41:59;6.13;;;2.43;;
6667;SDS011;3370;47.712;9.082;2022-10-23T15:44:29;3.70;;;2.27;;
6667;SDS011;3370;47.712;9.082;2022-10-23T15:46:56;2.67;;;2.50;;
6667;SDS011;3370;47.712;9.082;2022-10-23T15:49:22;7.63;;;2.80;;
6667;SDS011;3370;47.712;9.082;2022-10-23T15:51:49;2.73;;;2.30;;
6667;SDS011;3370;47.712;9.082;2022-10-23T15:54:16;4.67;;;2.90;;
6667;SDS011;3370;47.712;9.082;2022-10-23T15:56:45;21.43;;;4.50;;
6667;SDS011;3370;47.712;9.082;2022-10-23T15:59:14;6.43;;;3.63;;
6667;SDS011;3370;47.712;9.082;2022-10-23T16:01:42;8.70;;;4.10;;
6667;SDS011;3370;47.712;9.082;2022-10-23T16:04:08;8.93;;;5.10;;
6667;SDS011;3370;47.712;9.082;2022-10-23T16:06:34;3.80;;;3.50;;
6667;SDS011;3370;47.712;9.082;2022-10-23T16:09:00;8.17;;;2.73;;
6667;SDS011;3370;47.712;9.082;2022-10-23T16:11:28;9.80;;;3.13;;
6667;SDS011;3370;47.712;9.082;2022-10-23T16:13:57;13.80;;;5.47;;
6667;SDS011;3370;47.712;9.082;2022-10-23T16:16:25;3.50;;;3.20;;
6667;SDS011;3370;47.712;9.082;2022-10-23T16:18:52;5.07;;;4.50;;
6667;SDS011;3370;47.712;9.082;2022-10-23T16:23:51;15.33;;;10.70;;
6667;SDS011;3370;47.712;9.082;2022-10-23T16:26:22;15.80;;;6.43;;
6667;SDS011;3370;47.712;9.082;2022-10-23T16:28:52;4.27;;;3.97;;
6667;SDS011;3370;47.712;9.082;2022-10-23T16:31:19;11.17;;;4.97;;
6667;SDS011;3370;47.712;9.082;2022-10-23T16:33:47;8.37;;;4.93;;
6667;SDS011;3370;47.712;9.082;2022-10-23T16:36:14;14.00;;;4.17;;
6667;SDS011;3370;47.712;9.082;2022-10-23T16:38:41;5.60;;;3.47;;
6667;SDS011;3370;47.712;9.082;2022-10-23T16:41:07;6.30;;;2.90;;
6667;SDS011;3370;47.712;9.082;2022-10-23T16:43:33;4.30;;;3.50;;
6667;SDS011;3370;47.712;9.082;2022-10-23T16:46:00;5.63;;;3.70;;
6667;SDS011;3370;47.712;9.082;2022-10-23T16:48:39;3.63;;;3.30;;
6667;SDS011;3370;47.712;9.082;2022-10-23T16:51:10;11.60;;;4.73;;
6667;SDS011;3370;47.712;9.082;2022-10-23T16:53:42;8.20;;;5.43;;
6667;SDS011;3370;47.712;9.082;2022-10-23T16:56:09;4.53;;;3.10;;
6667;SDS011;3370;47.712;9.082;2022-10-23T16:58:37;3.30;;;3.10;;
6667;SDS011;3370;47.712;9.082;2022-10-23T17:01:07;3.90;;;3.50;;
6667;SDS011;3370;47.712;9.082;2022-10-23T17:03:40;3.10;;;2.53;;
6667;SDS011;3370;47.712;9.082;2022-10-23T17:06:10;2.80;;;2.60;;
6667;SDS011;3370;47.712;9.082;2022-10-23T17:08:39;6.80;;;2.77;;
6667;SDS011;3370;47.712;9.082;2022-10-23T17:13:41;6.80;;;2.53;;
6667;SDS011;3370;47.712;9.082;2022-10-23T17:16:21;5.63;;;2.37;;
6667;SDS011;3370;47.712;9.082;2022-10-23T17:18:54;4.20;;;2.40;;
6667;SDS011;3370;47.712;9.082;2022-10-23T17:21:21;7.07;;;2.40;;
6667;SDS011;3370;47.712;9.082;2022-10-23T17:23:48;2.67;;;1.80;;
6667;SDS011;3370;47.712;9.082;2022-10-23T17:26:18;7.90;;;1.70;;
6667;SDS011;3370;47.712;9.082;2022-10-23T17:28:46;5.03;;;2.93;;
6667;SDS011;3370;47.712;9.082;2022-10-23T17:31:22;8.40;;;4.10;;
6667;SDS011;3370;47.712;9.082;2022-10-23T17:33:55;4.57;;;4.17;;
6667;SDS011;3370;47.712;9.082;2022-10-23T17:36:26;4.43;;;2.93;;
6667;SDS011;3370;47.712;9.082;2022-10-23T17:38:53;10.40;;;5.83;;
6667;SDS011;3370;47.712;9.082;2022-10-23T17:41:21;14.43;;;7.57;;
6667;SDS011;3370;47.712;9.082;2022-10-23T17:43:48;19.60;;;10.17;;
6667;SDS011;3370;47.712;9.082;2022-10-23T17:46:15;17.90;;;7.30;;
6667;SDS011;3370;47.712;9.082;2022-10-23T17:48:42;9.27;;;6.47;;
6667;SDS011;3370;47.712;9.082;2022-10-23T17:51:16;7.60;;;5.73;;
6667;SDS011;3370;47.712;9.082;2022-10-23T17:53:46;5.57;;;4.00;;
6667;SDS011;3370;47.712;9.082;2022-10-23T17:56:16;11.20;;;6.80;;
6667;SDS011;3370;47.712;9.082;2022-10-23T17:58:51;10.77;;;7.40;;
6667;SDS011;3370;47.712;9.082;2022-10-23T18:01:23;8.07;;;4.87;;
6667;SDS011;3370;47.712;9.082;2022-10-23T18:03:51;3.77;;;2.87;;
6667;SDS011;3370;47.712;9.082;2022-10-23T18:06:20;3.97;;;3.23;;
6667;SDS011;3370;47.712;9.082;2022-10-23T18:08:52;7.47;;;2.80;;